createdAt,value
2022-10-15T00:01:47.412Z,39.40
2022-10-15T00:04:15.822Z,36.63
2022-10-15T00:06:44.257Z,39.60
2022-10-15T00:09:12.646Z,37.67
2022-10-15T00:11:41.221Z,37.37
2022-10-15T00:14:09.630Z,38.40
2022-10-15T00:16:38.054Z,39.13
2022-10-15T00:19:06.417Z,38.87
2022-10-15T00:21:34.767Z,39.53
2022-10-15T00:24:03.306Z,37.80
2022-10-15T00:26:32.448Z,38.00
2022-10-15T00:29:03.455Z,38.30
2022-10-15T00:31:33.466Z,37.50
2022-10-15T00:34:03.621Z,35.97
2022-10-15T00:36:35.294Z,37.00
2022-10-15T00:39:06.157Z,36.93
2022-10-15T00:41:41.110Z,40.30
2022-10-15T00:44:30.835Z,37.30
2022-10-15T00:47:14.981Z,38.33
2022-10-15T00:50:11.575Z,35.87
2022-10-15T00:53:03.809Z,38.20
2022-10-15T00:55:35.849Z,36.30
2022-10-15T00:58:16.727Z,36.10
2022-10-15T01:00:45.272Z,36.60
2022-10-15T01:03:13.931Z,37.10
2022-10-15T01:05:44.939Z,36.77
2022-10-15T01:08:13.355Z,35.73
2022-10-15T01:11:00.292Z,37.43
2022-10-15T01:13:50.637Z,34.10
2022-10-15T01:16:41.373Z,35.30
2022-10-15T01:19:29.737Z,34.67
2022-10-15T01:22:22.583Z,34.77
2022-10-15T01:25:13.132Z,34.47
2022-10-15T01:27:47.256Z,33.77
2022-10-15T01:30:39.378Z,35.47
2022-10-15T01:33:29.500Z,35.60
2022-10-15T01:36:10.901Z,37.60
2022-10-15T01:39:00.668Z,37.67
2022-10-15T01:41:44.191Z,35.17
2022-10-15T01:44:20.947Z,34.77
2022-10-15T01:47:15.459Z,35.63
2022-10-15T01:49:46.943Z,33.43
2022-10-15T01:52:20.649Z,33.83
2022-10-15T01:54:51.263Z,34.30
2022-10-15T01:57:22.152Z,34.63
2022-10-15T01:59:51.241Z,35.90
2022-10-15T02:02:19.734Z,36.83
2022-10-15T02:04:48.111Z,35.20
2022-10-15T02:07:38.676Z,35.53
2022-10-15T02:10:10.969Z,34.30
2022-10-15T02:13:07.106Z,37.63
2022-10-15T02:15:56.965Z,36.60
2022-10-15T02:18:47.031Z,38.57
2022-10-15T02:21:48.423Z,36.07
2022-10-15T02:24:34.636Z,38.60
2022-10-15T02:27:04.374Z,37.00
2022-10-15T02:29:36.243Z,37.33
2022-10-15T02:32:07.449Z,35.60
2022-10-15T02:34:36.849Z,36.50
2022-10-15T02:37:07.237Z,38.27
2022-10-15T02:39:36.143Z,36.83
2022-10-15T02:42:05.242Z,34.57
2022-10-15T02:44:34.175Z,37.10
2022-10-15T02:47:03.005Z,37.60
2022-10-15T02:49:31.359Z,35.97
2022-10-15T02:52:00.132Z,35.73
2022-10-15T02:54:28.597Z,36.13
2022-10-15T02:56:57.004Z,36.03
2022-10-15T02:59:25.482Z,36.27
2022-10-15T03:01:53.875Z,35.00
2022-10-15T03:04:22.344Z,36.97
2022-10-15T03:06:51.598Z,38.57
2022-10-15T03:09:20.358Z,34.97
2022-10-15T03:11:48.707Z,35.57
2022-10-15T03:14:17.332Z,34.23
2022-10-15T03:16:45.773Z,35.20
2022-10-15T03:19:14.212Z,32.90
2022-10-15T03:21:42.942Z,34.07
2022-10-15T03:24:11.355Z,31.77
2022-10-15T03:26:39.783Z,32.97
2022-10-15T03:29:08.606Z,32.93
2022-10-15T03:31:36.986Z,32.60
2022-10-15T03:34:05.506Z,32.33
2022-10-15T03:36:33.913Z,30.10
2022-10-15T03:39:02.388Z,29.90
2022-10-15T03:41:30.825Z,28.30
2022-10-15T03:44:03.818Z,25.93
2022-10-15T03:46:33.046Z,26.43
2022-10-15T03:49:01.950Z,27.23
2022-10-15T03:51:31.703Z,24.37
2022-10-15T03:54:00.537Z,24.90
2022-10-15T03:56:28.952Z,23.47
2022-10-15T03:58:57.662Z,22.50
2022-10-15T04:01:27.532Z,22.77
2022-10-15T04:03:55.956Z,22.33
2022-10-15T04:06:24.526Z,22.50
2022-10-15T04:11:21.699Z,21.20
2022-10-15T04:13:51.360Z,21.40
2022-10-15T04:16:19.865Z,20.30
2022-10-15T04:18:48.209Z,19.70
2022-10-15T04:21:16.827Z,19.63
2022-10-15T04:23:45.273Z,19.83
2022-10-15T04:26:13.611Z,18.70
2022-10-15T04:28:42.217Z,17.77
2022-10-15T04:31:10.733Z,19.00
2022-10-15T04:33:39.113Z,17.63
2022-10-15T04:36:13.196Z,17.17
2022-10-15T04:38:41.806Z,16.77
2022-10-15T04:41:12.538Z,16.03
2022-10-15T04:43:41.594Z,15.53
2022-10-15T04:46:10.438Z,13.80
2022-10-15T04:48:42.930Z,15.40
2022-10-15T04:51:17.400Z,14.70
2022-10-15T04:53:46.534Z,15.20
2022-10-15T04:56:18.738Z,15.30
2022-10-15T04:58:48.572Z,14.70
2022-10-15T05:01:20.013Z,14.90
2022-10-15T05:03:49.819Z,14.63
2022-10-15T05:06:21.682Z,13.70
2022-10-15T05:08:51.068Z,13.80
2022-10-15T05:11:28.631Z,12.47
2022-10-15T05:13:58.647Z,13.30
2022-10-15T05:16:30.078Z,12.47
2022-10-15T05:19:00.782Z,12.90
2022-10-15T05:21:30.133Z,13.63
2022-10-15T05:23:59.558Z,12.30
2022-10-15T05:26:29.969Z,12.30
2022-10-15T05:29:00.384Z,12.60
2022-10-15T05:31:31.212Z,12.27
2022-10-15T05:33:59.988Z,11.80
2022-10-15T05:36:30.874Z,12.10
2022-10-15T05:39:01.436Z,11.70
2022-10-15T05:41:31.174Z,12.30
2022-10-15T05:44:00.384Z,12.60
2022-10-15T05:46:29.054Z,11.80
2022-10-15T05:48:58.859Z,11.73
2022-10-15T05:51:29.033Z,12.00
2022-10-15T05:53:58.791Z,12.17
2022-10-15T05:56:28.341Z,11.67
2022-10-15T05:58:57.093Z,11.30
2022-10-15T06:01:25.526Z,11.33
2022-10-15T06:03:53.900Z,10.53
2022-10-15T06:06:27.428Z,10.67
2022-10-15T06:08:56.756Z,10.20
2022-10-15T06:11:25.140Z,9.53
2022-10-15T06:13:53.637Z,9.80
2022-10-15T06:16:23.979Z,9.10
2022-10-15T06:18:55.694Z,9.97
2022-10-15T06:21:24.143Z,10.20
2022-10-15T06:23:52.587Z,10.60
2022-10-15T06:26:21.036Z,11.07
2022-10-15T06:28:49.502Z,10.07
2022-10-15T06:31:18.050Z,9.70
2022-10-15T06:33:46.491Z,10.10
2022-10-15T06:36:14.852Z,9.30
2022-10-15T06:38:46.653Z,9.83
2022-10-15T06:41:15.211Z,10.10
2022-10-15T06:43:43.861Z,8.73
2022-10-15T06:46:12.763Z,9.30
2022-10-15T06:48:41.165Z,8.70
2022-10-15T06:51:09.713Z,7.87
2022-10-15T06:53:41.281Z,8.90
2022-10-15T06:56:10.052Z,9.33
2022-10-15T06:58:38.422Z,9.20
2022-10-15T07:01:07.673Z,8.77
2022-10-15T07:03:36.943Z,9.40
2022-10-15T07:06:07.158Z,9.60
2022-10-15T07:08:36.473Z,8.43
2022-10-15T07:11:06.969Z,9.40
2022-10-15T07:13:35.427Z,8.80
2022-10-15T07:16:08.413Z,8.80
2022-10-15T07:18:37.838Z,8.40
2022-10-15T07:21:08.117Z,8.10
2022-10-15T07:23:36.914Z,9.37
2022-10-15T07:26:05.373Z,8.80
2022-10-15T07:28:33.840Z,8.20
2022-10-15T07:31:04.838Z,8.50
2022-10-15T07:33:35.388Z,8.10
2022-10-15T07:36:08.914Z,8.53
2022-10-15T07:38:38.034Z,8.33
2022-10-15T07:41:07.446Z,8.87
2022-10-15T07:43:37.452Z,8.53
2022-10-15T07:46:06.308Z,7.80
2022-10-15T07:48:34.838Z,8.63
2022-10-15T07:51:08.457Z,8.27
2022-10-15T07:53:37.208Z,8.23
2022-10-15T07:56:11.073Z,9.07
2022-10-15T07:58:40.303Z,7.80
2022-10-15T08:01:11.041Z,8.83
2022-10-15T08:03:39.879Z,8.60
2022-10-15T08:06:09.421Z,7.70
2022-10-15T08:08:38.513Z,8.73
2022-10-15T08:11:15.078Z,8.10
2022-10-15T08:13:44.798Z,7.63
2022-10-15T08:16:15.043Z,7.87
2022-10-15T08:18:43.603Z,8.00
2022-10-15T08:21:13.104Z,8.60
2022-10-15T08:23:41.552Z,9.03
2022-10-15T08:26:10.194Z,7.87
2022-10-15T08:28:38.681Z,8.83
2022-10-15T08:31:07.523Z,7.77
2022-10-15T08:33:37.279Z,9.83
2022-10-15T08:36:09.212Z,8.30
2022-10-15T08:38:37.622Z,8.43
2022-10-15T08:41:19.461Z,9.50
2022-10-15T08:43:49.183Z,8.43
2022-10-15T08:46:32.861Z,8.87
2022-10-15T08:49:02.717Z,8.37
2022-10-15T08:51:47.531Z,8.43
2022-10-15T08:54:19.387Z,9.07
2022-10-15T08:56:54.979Z,8.60
2022-10-15T08:59:54.596Z,8.83
2022-10-15T09:02:52.658Z,9.13
2022-10-15T09:05:34.757Z,10.17
2022-10-15T09:08:11.662Z,9.10
2022-10-15T09:10:53.979Z,10.17
2022-10-15T09:13:44.357Z,9.40
2022-10-15T09:16:19.059Z,9.90
2022-10-15T09:18:53.305Z,9.27
2022-10-15T09:21:25.954Z,10.50
2022-10-15T09:23:59.693Z,9.40
2022-10-15T09:26:58.272Z,9.10
2022-10-15T09:29:41.394Z,9.67
2022-10-15T09:32:32.235Z,9.20
2022-10-15T09:35:26.725Z,10.30
2022-10-15T09:38:07.169Z,10.03
2022-10-15T09:40:58.533Z,10.00
2022-10-15T09:43:38.608Z,9.60
2022-10-15T09:46:07.881Z,10.40
2022-10-15T09:48:48.714Z,10.50
2022-10-15T09:51:28.737Z,10.70
2022-10-15T09:54:11.855Z,10.80
2022-10-15T09:56:48.365Z,10.03
2022-10-15T09:59:19.256Z,9.80
2022-10-15T10:02:03.755Z,10.63
2022-10-15T10:04:34.445Z,11.03
2022-10-15T10:07:10.950Z,12.27
2022-10-15T10:09:51.626Z,11.40
2022-10-15T10:12:42.328Z,10.80
2022-10-15T10:15:32.923Z,11.40
2022-10-15T10:18:01.687Z,11.90
2022-10-15T10:20:31.820Z,10.33
2022-10-15T10:23:02.834Z,10.60
2022-10-15T10:25:33.315Z,10.50
2022-10-15T10:28:04.846Z,11.67
2022-10-15T10:30:48.829Z,10.70
2022-10-15T10:33:25.608Z,11.10
2022-10-15T10:35:54.442Z,10.67
2022-10-15T10:38:34.675Z,10.57
2022-10-15T10:41:11.624Z,11.53
2022-10-15T10:43:55.057Z,10.83
2022-10-15T10:46:26.787Z,10.70
2022-10-15T10:48:55.733Z,12.13
2022-10-15T10:51:27.692Z,11.40
2022-10-15T10:53:56.235Z,11.43
2022-10-15T10:56:32.149Z,10.80
2022-10-15T10:59:23.762Z,11.93
2022-10-15T11:01:52.929Z,11.87
2022-10-15T11:04:34.048Z,13.23
2022-10-15T11:07:08.330Z,12.47
2022-10-15T11:10:09.062Z,12.60
2022-10-15T11:12:55.605Z,12.30
2022-10-15T11:15:32.467Z,12.57
2022-10-15T11:18:22.887Z,11.70
2022-10-15T11:21:14.149Z,10.47
2022-10-15T11:23:45.610Z,12.73
2022-10-15T11:26:52.111Z,12.30
2022-10-15T11:29:48.270Z,13.67
2022-10-15T11:32:47.840Z,12.37
2022-10-15T11:35:40.815Z,11.93
2022-10-15T11:38:16.043Z,13.37
2022-10-15T11:41:12.251Z,11.43
2022-10-15T11:43:53.739Z,12.73
2022-10-15T11:46:44.134Z,11.83
2022-10-15T11:49:32.845Z,12.80
2022-10-15T11:52:22.919Z,12.43
2022-10-15T11:55:02.549Z,13.40
2022-10-15T11:57:34.830Z,13.73
2022-10-15T12:00:31.741Z,12.03
2022-10-15T12:03:25.086Z,14.07
2022-10-15T12:06:01.769Z,12.80
2022-10-15T12:08:35.250Z,14.60
2022-10-15T12:11:38.746Z,13.70
2022-10-15T12:14:39.532Z,13.03
2022-10-15T12:17:36.714Z,13.57
2022-10-15T12:20:17.154Z,12.83
2022-10-15T12:22:48.569Z,15.13
2022-10-15T12:25:37.022Z,13.57
2022-10-15T12:28:09.785Z,13.73
2022-10-15T12:30:38.696Z,14.27
2022-10-15T12:33:26.771Z,13.80
2022-10-15T12:35:57.904Z,13.27
2022-10-15T12:38:35.340Z,13.33
2022-10-15T12:41:21.399Z,14.33
2022-10-15T12:44:04.866Z,13.87
2022-10-15T12:46:39.706Z,14.80
2022-10-15T12:49:31.706Z,13.70
2022-10-15T12:52:01.546Z,13.10
2022-10-15T12:54:39.013Z,13.90
2022-10-15T12:57:32.077Z,13.20
2022-10-15T13:00:02.253Z,16.30
2022-10-15T13:02:46.900Z,15.40
2022-10-15T13:05:35.413Z,13.73
2022-10-15T13:08:08.182Z,14.57
2022-10-15T13:10:42.819Z,15.43
2022-10-15T13:13:17.921Z,15.30
2022-10-15T13:15:56.101Z,15.53
2022-10-15T13:18:27.218Z,15.53
2022-10-15T13:20:57.198Z,16.00
2022-10-15T13:23:31.833Z,15.50
2022-10-15T13:26:20.630Z,16.03
2022-10-15T13:28:51.347Z,16.17
2022-10-15T13:31:30.491Z,15.73
2022-10-15T13:34:19.318Z,15.00
2022-10-15T13:36:47.867Z,16.17
2022-10-15T13:42:18.218Z,15.27
2022-10-15T13:44:59.090Z,15.80
2022-10-15T13:47:38.906Z,15.50
2022-10-15T13:50:21.252Z,14.90
2022-10-15T13:52:52.021Z,14.77
2022-10-15T13:55:32.210Z,15.73
2022-10-15T13:58:22.327Z,16.53
2022-10-15T14:01:03.169Z,14.93
2022-10-15T14:03:34.427Z,14.47
2022-10-15T14:06:28.400Z,14.90
2022-10-15T14:09:02.951Z,15.47
2022-10-15T14:11:31.849Z,15.80
2022-10-15T14:14:00.793Z,14.80
2022-10-15T14:16:43.405Z,14.80
2022-10-15T14:19:17.589Z,15.23
2022-10-15T14:21:49.366Z,15.53
2022-10-15T14:24:23.340Z,16.47
2022-10-15T14:26:52.130Z,15.37
2022-10-15T14:29:27.868Z,15.50
2022-10-15T14:31:57.174Z,16.23
2022-10-15T14:34:39.309Z,15.40
2022-10-15T14:37:38.498Z,15.00
2022-10-15T14:40:13.238Z,14.93
2022-10-15T14:42:47.737Z,15.17
2022-10-15T14:45:27.931Z,15.33
2022-10-15T14:48:10.109Z,15.20
2022-10-15T14:50:43.466Z,13.87
2022-10-15T14:53:26.353Z,15.87
2022-10-15T14:55:59.872Z,14.80
2022-10-15T14:58:30.340Z,14.53
2022-10-15T15:01:05.166Z,16.03
2022-10-15T15:03:42.272Z,14.80
2022-10-15T15:06:11.045Z,15.13
2022-10-15T15:08:39.407Z,14.67
2022-10-15T15:11:11.689Z,15.93
2022-10-15T15:13:43.114Z,15.00
2022-10-15T15:16:14.503Z,16.57
2022-10-15T15:18:44.740Z,15.00
2022-10-15T15:21:17.519Z,14.37
2022-10-15T15:23:46.838Z,14.30
2022-10-15T15:26:15.209Z,14.47
2022-10-15T15:28:43.646Z,15.80
2022-10-15T15:31:18.670Z,15.67
2022-10-15T15:33:47.293Z,15.67
2022-10-15T15:36:22.489Z,15.03
2022-10-15T15:38:52.645Z,16.30
2022-10-15T15:41:23.410Z,14.90
2022-10-15T15:43:52.715Z,16.97
2022-10-15T15:46:21.179Z,14.03
2022-10-15T15:48:49.556Z,15.63
2022-10-15T15:51:22.737Z,16.40
2022-10-15T15:53:51.729Z,15.50
2022-10-15T15:56:20.389Z,14.80
2022-10-15T15:58:51.081Z,15.77
2022-10-15T16:01:20.808Z,15.17
2022-10-15T16:03:49.309Z,14.97
2022-10-15T16:06:17.833Z,15.23
2022-10-15T16:08:46.331Z,16.33
2022-10-15T16:11:14.741Z,17.93
2022-10-15T16:13:43.944Z,15.80
2022-10-15T16:16:12.564Z,16.10
2022-10-15T16:18:41.079Z,15.37
2022-10-15T16:21:09.585Z,14.70
2022-10-15T16:23:39.136Z,15.90
2022-10-15T16:26:07.602Z,16.87
2022-10-15T16:28:36.041Z,15.87
2022-10-15T16:31:25.191Z,16.13
2022-10-15T16:33:56.902Z,15.80
2022-10-15T16:36:25.478Z,15.10
2022-10-15T16:38:54.495Z,15.47
2022-10-15T16:41:23.088Z,15.97
2022-10-15T16:43:51.463Z,14.07
2022-10-15T16:46:20.478Z,15.30
2022-10-15T16:48:57.550Z,14.97
2022-10-15T16:51:26.805Z,14.20
2022-10-15T16:53:58.332Z,14.73
2022-10-15T16:56:31.218Z,13.17
2022-10-15T16:58:59.881Z,14.87
2022-10-15T17:01:30.411Z,14.60
2022-10-15T17:04:01.855Z,15.60
2022-10-15T17:06:31.953Z,13.83
2022-10-15T17:09:04.783Z,14.43
2022-10-15T17:11:35.810Z,15.60
2022-10-15T17:14:13.254Z,15.23
2022-10-15T17:16:45.841Z,14.70
2022-10-15T17:19:16.054Z,15.43
2022-10-15T17:21:46.943Z,15.07
2022-10-15T17:24:17.751Z,14.67
2022-10-15T17:26:47.547Z,15.27
2022-10-15T17:29:21.057Z,15.20
2022-10-15T17:31:50.604Z,14.27
2022-10-15T17:34:19.356Z,15.87
2022-10-15T17:36:49.912Z,14.57
2022-10-15T17:39:21.259Z,15.40
2022-10-15T17:41:51.546Z,15.73
2022-10-15T17:44:20.604Z,16.17
2022-10-15T17:49:19.528Z,17.03
2022-10-15T17:51:48.420Z,15.17
2022-10-15T17:54:17.363Z,14.90
2022-10-15T17:56:45.889Z,14.27
2022-10-15T17:59:14.650Z,13.60
2022-10-15T18:02:01.102Z,12.27
2022-10-15T18:04:32.925Z,13.73
2022-10-15T18:07:01.392Z,13.93
2022-10-15T18:09:30.601Z,12.70
2022-10-15T18:12:01.355Z,14.07
2022-10-15T18:14:31.068Z,12.80
2022-10-15T18:16:59.986Z,12.40
2022-10-15T18:19:29.116Z,12.30
2022-10-15T18:21:57.907Z,13.43
2022-10-15T18:24:26.458Z,12.40
2022-10-15T18:26:55.122Z,12.57
2022-10-15T18:29:25.872Z,13.37
2022-10-15T18:31:57.685Z,11.90
2022-10-15T18:34:26.891Z,12.60
2022-10-15T18:36:55.517Z,13.80
2022-10-15T18:39:23.910Z,13.40
2022-10-15T18:41:52.474Z,12.20
2022-10-15T18:44:22.372Z,16.37
2022-10-15T18:46:51.693Z,18.37
2022-10-15T18:49:21.426Z,13.90
2022-10-15T18:51:53.751Z,15.53
2022-10-15T18:54:23.055Z,14.87
2022-10-15T18:56:53.290Z,13.73
2022-10-15T18:59:22.435Z,13.17
2022-10-15T19:01:51.719Z,14.00
2022-10-15T19:04:21.897Z,14.17
2022-10-15T19:06:53.398Z,16.00
2022-10-15T19:09:24.881Z,14.40
2022-10-15T19:11:55.830Z,12.53
2022-10-15T19:14:26.319Z,13.50
2022-10-15T19:16:55.125Z,14.13
2022-10-15T19:19:25.156Z,13.10
2022-10-15T19:21:54.373Z,14.90
2022-10-15T19:24:23.734Z,13.90
2022-10-15T19:26:53.436Z,14.97
2022-10-15T19:29:22.372Z,14.13
2022-10-15T19:31:53.035Z,13.93
2022-10-15T19:34:23.608Z,12.67
2022-10-15T19:36:52.619Z,26.47
2022-10-15T19:39:23.297Z,15.20
2022-10-15T19:41:52.828Z,13.97
2022-10-15T19:44:26.169Z,16.30
2022-10-15T19:46:56.952Z,13.90
2022-10-15T19:49:26.372Z,16.03
2022-10-15T19:51:55.643Z,15.20
2022-10-15T19:56:53.425Z,15.63
2022-10-15T19:59:21.809Z,15.30
2022-10-15T20:01:50.412Z,19.70
2022-10-15T20:04:18.867Z,18.57
2022-10-15T20:06:48.570Z,13.80
2022-10-15T20:09:17.060Z,13.43
2022-10-15T20:11:46.143Z,18.87
2022-10-15T20:14:14.580Z,17.23
2022-10-15T20:16:43.063Z,13.53
2022-10-15T20:19:13.367Z,18.03
2022-10-15T20:21:43.160Z,13.57
2022-10-15T20:24:11.720Z,15.57
2022-10-15T20:26:40.279Z,11.97
2022-10-15T20:29:09.768Z,23.07
2022-10-15T20:31:38.244Z,13.37
2022-10-15T20:34:06.653Z,20.80
2022-10-15T20:36:35.065Z,13.47
2022-10-15T20:39:03.657Z,12.73
2022-10-15T20:41:32.056Z,14.60
2022-10-15T20:44:00.854Z,15.70
2022-10-15T20:46:36.680Z,15.97
2022-10-15T20:51:42.945Z,18.03
2022-10-15T20:54:12.993Z,20.67
2022-10-15T20:56:42.089Z,13.50
2022-10-15T20:59:10.475Z,16.07
2022-10-15T21:01:39.311Z,14.37
2022-10-15T21:04:08.035Z,10.77
2022-10-15T21:06:36.461Z,12.17
2022-10-15T21:09:05.123Z,17.40
2022-10-15T21:11:34.064Z,10.83
2022-10-15T21:14:02.672Z,16.47
2022-10-15T21:19:00.474Z,18.93
2022-10-15T21:21:29.642Z,12.03
2022-10-15T21:24:00.004Z,13.00
2022-10-15T21:26:28.554Z,17.30
2022-10-15T21:29:01.470Z,11.43
2022-10-15T21:31:29.947Z,11.30
2022-10-15T21:33:58.567Z,12.07
2022-10-15T21:36:29.445Z,12.93
2022-10-15T21:39:04.671Z,23.43
2022-10-15T21:41:34.511Z,17.83
2022-10-15T21:44:04.667Z,11.30
2022-10-15T21:46:33.714Z,10.77
2022-10-15T21:49:04.288Z,13.97
2022-10-15T21:51:34.660Z,11.33
2022-10-15T21:54:05.007Z,18.17
2022-10-15T21:56:34.459Z,10.73
2022-10-15T21:59:03.107Z,13.77
2022-10-15T22:01:34.336Z,11.53
2022-10-15T22:04:10.739Z,10.67
2022-10-15T22:06:43.254Z,10.53
2022-10-15T22:09:12.721Z,10.53
2022-10-15T22:11:42.498Z,8.97
2022-10-15T22:14:14.966Z,10.80
2022-10-15T22:16:43.977Z,8.07
2022-10-15T22:19:17.151Z,9.83
2022-10-15T22:21:46.261Z,12.60
2022-10-15T22:24:18.059Z,9.40
2022-10-15T22:26:51.593Z,19.40
2022-10-15T22:29:23.042Z,11.30
2022-10-15T22:31:52.606Z,10.90
2022-10-15T22:34:22.167Z,14.07
2022-10-15T22:36:51.135Z,11.80
2022-10-15T22:39:20.298Z,17.37
2022-10-15T22:41:49.686Z,12.80
2022-10-15T22:44:20.848Z,14.90
2022-10-15T22:46:52.586Z,13.67
2022-10-15T22:49:22.996Z,17.50
2022-10-15T22:51:52.400Z,13.00
2022-10-15T22:54:24.216Z,13.57
2022-10-15T22:56:53.273Z,15.73
2022-10-15T22:59:22.019Z,14.67
2022-10-15T23:01:50.615Z,13.60
2022-10-15T23:04:19.071Z,16.63
2022-10-15T23:06:47.480Z,12.47
2022-10-15T23:09:18.426Z,9.83
2022-10-15T23:11:47.398Z,15.27
2022-10-15T23:14:17.507Z,10.33
2022-10-15T23:16:48.659Z,12.97
2022-10-15T23:19:22.821Z,12.27
2022-10-15T23:21:59.159Z,11.90
2022-10-15T23:24:29.784Z,12.90
2022-10-15T23:26:58.133Z,10.60
2022-10-15T23:29:27.582Z,10.20
2022-10-15T23:31:56.468Z,10.60
2022-10-15T23:34:27.022Z,20.57
2022-10-15T23:36:55.573Z,9.57
2022-10-15T23:39:26.932Z,17.20
2022-10-15T23:41:56.570Z,15.03
2022-10-15T23:44:29.265Z,11.10
2022-10-15T23:46:57.748Z,10.67
2022-10-15T23:49:26.155Z,11.40
2022-10-15T23:51:54.495Z,9.83
2022-10-15T23:54:23.122Z,13.57
2022-10-15T23:56:51.574Z,13.20
2022-10-15T23:59:22.043Z,11.90
